sensor_id;sensor_type;location;lat;lon;timestamp;pressure;altitude;pressure_sealevel;temperature;humidity
69187;BME280;56301;56.864;60.554;2023-07-22T00:00:05;97776.13;;;23.86;55.55
69187;BME280;56301;56.864;60.554;2023-07-22T00:02:28;97769.03;;;23.85;55.85
69187;BME280;56301;56.864;60.554;2023-07-22T00:04:50;97764.28;;;23.87;55.34
69187;BME280;56301;56.864;60.554;2023-07-22T00:07:12;97765.72;;;23.89;54.80
69187;BME280;56301;56.864;60.554;2023-07-22T00:09:35;97771.13;;;23.89;55.06
69187;BME280;56301;56.864;60.554;2023-07-22T00:11:57;97770.28;;;23.89;55.51
69187;BME280;56301;56.864;60.554;2023-07-22T00:14:20;97767.41;;;23.90;55.13
69187;BME280;56301;56.864;60.554;2023-07-22T00:16:43;97770.47;;;23.81;55.32
69187;BME280;56301;56.864;60.554;2023-07-22T00:19:05;97769.28;;;23.90;55.27
69187;BME280;56301;56.864;60.554;2023-07-22T00:21:27;97773.81;;;23.89;54.97
69187;BME280;56301;56.864;60.554;2023-07-22T00:23:50;97771.97;;;23.90;54.59
69187;BME280;56301;56.864;60.554;2023-07-22T00:26:12;97769.28;;;23.90;55.11
69187;BME280;56301;56.864;60.554;2023-07-22T00:28:35;97775.91;;;23.87;55.04
69187;BME280;56301;56.864;60.554;2023-07-22T00:30:57;97772.78;;;23.84;55.14
69187;BME280;56301;56.864;60.554;2023-07-22T00:33:20;97779.84;;;23.85;55.20
69187;BME280;56301;56.864;60.554;2023-07-22T00:35:42;97773.59;;;23.84;55.31
69187;BME280;56301;56.864;60.554;2023-07-22T00:38:05;97775.28;;;23.78;53.84
69187;BME280;56301;56.864;60.554;2023-07-22T00:40:27;97780.84;;;22.86;53.48
69187;BME280;56301;56.864;60.554;2023-07-22T00:42:50;97776.44;;;22.78;53.23
69187;BME280;56301;56.864;60.554;2023-07-22T00:45:13;97783.28;;;22.53;54.39
69187;BME280;56301;56.864;60.554;2023-07-22T00:47:35;97779.81;;;22.59;54.49
69187;BME280;56301;56.864;60.554;2023-07-22T00:49:59;97788.00;;;22.94;54.67
69187;BME280;56301;56.864;60.554;2023-07-22T00:52:22;97782.56;;;23.15;52.83
69187;BME280;56301;56.864;60.554;2023-07-22T00:54:44;97784.09;;;23.24;54.77
69187;BME280;56301;56.864;60.554;2023-07-22T00:57:07;97775.88;;;23.39;54.45
69187;BME280;56301;56.864;60.554;2023-07-22T00:59:29;97776.75;;;23.46;55.20
69187;BME280;56301;56.864;60.554;2023-07-22T01:01:52;97774.69;;;23.55;55.51
69187;BME280;56301;56.864;60.554;2023-07-22T01:04:14;97781.59;;;23.64;54.93
69187;BME280;56301;56.864;60.554;2023-07-22T01:06:38;97781.03;;;23.69;55.15
69187;BME280;56301;56.864;60.554;2023-07-22T01:09:00;97779.59;;;23.73;54.98
69187;BME280;56301;56.864;60.554;2023-07-22T01:11:23;97791.03;;;23.75;54.38
69187;BME280;56301;56.864;60.554;2023-07-22T01:13:45;97791.66;;;23.77;54.02
69187;BME280;56301;56.864;60.554;2023-07-22T01:16:08;97795.41;;;23.76;54.07
69187;BME280;56301;56.864;60.554;2023-07-22T01:18:30;97789.78;;;23.77;54.50
69187;BME280;56301;56.864;60.554;2023-07-22T01:20:53;97786.28;;;23.84;54.09
69187;BME280;56301;56.864;60.554;2023-07-22T01:23:15;97787.34;;;23.83;54.03
69187;BME280;56301;56.864;60.554;2023-07-22T01:25:38;97784.63;;;23.83;53.97
69187;BME280;56301;56.864;60.554;2023-07-22T01:28:00;97780.66;;;23.85;53.61
69187;BME280;56301;56.864;60.554;2023-07-22T01:30:23;97786.28;;;23.84;53.92
69187;BME280;56301;56.864;60.554;2023-07-22T01:32:46;97785.63;;;23.82;54.53
69187;BME280;56301;56.864;60.554;2023-07-22T01:35:09;97783.19;;;23.87;54.08
69187;BME280;56301;56.864;60.554;2023-07-22T01:37:31;97779.84;;;23.85;54.53
69187;BME280;56301;56.864;60.554;2023-07-22T01:39:54;97788.19;;;23.90;54.30
69187;BME280;56301;56.864;60.554;2023-07-22T01:42:17;97787.34;;;23.89;54.61
69187;BME280;56301;56.864;60.554;2023-07-22T01:44:39;97785.69;;;23.88;54.50
69187;BME280;56301;56.864;60.554;2023-07-22T01:47:02;97777.81;;;23.93;54.47
69187;BME280;56301;56.864;60.554;2023-07-22T01:49:25;97790.03;;;23.89;54.65
69187;BME280;56301;56.864;60.554;2023-07-22T01:51:47;97778.22;;;23.90;54.69
69187;BME280;56301;56.864;60.554;2023-07-22T01:54:10;97784.44;;;23.91;54.91
69187;BME280;56301;56.864;60.554;2023-07-22T01:56:32;97788.19;;;23.90;54.30
69187;BME280;56301;56.864;60.554;2023-07-22T01:58:55;97780.56;;;22.96;53.49
69187;BME280;56301;56.864;60.554;2023-07-22T02:01:17;97788.50;;;22.82;53.76
69187;BME280;56301;56.864;60.554;2023-07-22T02:03:40;97793.91;;;22.61;55.55
69187;BME280;56301;56.864;60.554;2023-07-22T02:06:02;97797.66;;;22.60;56.39
69187;BME280;56301;56.864;60.554;2023-07-22T02:08:25;97780.25;;;22.91;54.38
69187;BME280;56301;56.864;60.554;2023-07-22T02:10:47;97789.63;;;23.16;54.00
69187;BME280;56301;56.864;60.554;2023-07-22T02:13:10;97790.75;;;23.28;54.64
69187;BME280;56301;56.864;60.554;2023-07-22T02:15:32;97786.22;;;23.36;54.88
69187;BME280;56301;56.864;60.554;2023-07-22T02:17:55;97785.84;;;23.45;55.90
69187;BME280;56301;56.864;60.554;2023-07-22T02:20:17;97787.59;;;23.53;55.30
69187;BME280;56301;56.864;60.554;2023-07-22T02:22:40;97791.75;;;23.62;55.36
69187;BME280;56301;56.864;60.554;2023-07-22T02:25:02;97786.06;;;23.78;55.22
69187;BME280;56301;56.864;60.554;2023-07-22T02:27:25;97787.09;;;23.77;55.18
69187;BME280;56301;56.864;60.554;2023-07-22T02:29:47;97792.31;;;23.79;55.37
69187;BME280;56301;56.864;60.554;2023-07-22T02:32:10;97791.88;;;23.75;55.18
69187;BME280;56301;56.864;60.554;2023-07-22T02:34:32;97800.59;;;23.77;55.06
69187;BME280;56301;56.864;60.554;2023-07-22T02:36:55;97788.78;;;23.78;54.60
69187;BME280;56301;56.864;60.554;2023-07-22T02:39:17;97790.22;;;23.81;54.68
69187;BME280;56301;56.864;60.554;2023-07-22T02:41:40;97799.78;;;23.84;54.42
69187;BME280;56301;56.864;60.554;2023-07-22T02:44:02;97798.13;;;23.83;54.83
69187;BME280;56301;56.864;60.554;2023-07-22T02:46:25;97793.56;;;23.83;54.84
69187;BME280;56301;56.864;60.554;2023-07-22T02:48:47;97793.78;;;23.88;54.53
69187;BME280;56301;56.864;60.554;2023-07-22T02:51:09;97790.69;;;23.91;53.58
69187;BME280;56301;56.864;60.554;2023-07-22T02:53:32;97796.09;;;23.91;54.48
69187;BME280;56301;56.864;60.554;2023-07-22T02:55:55;97789.31;;;23.67;52.90
69187;BME280;56301;56.864;60.554;2023-07-22T02:58:17;97790.16;;;23.05;53.84
69187;BME280;56301;56.864;60.554;2023-07-22T03:00:40;97796.22;;;22.64;54.11
69187;BME280;56301;56.864;60.554;2023-07-22T03:03:02;97797.78;;;22.52;54.96
69187;BME280;56301;56.864;60.554;2023-07-22T03:05:25;97797.88;;;22.65;54.88
69187;BME280;56301;56.864;60.554;2023-07-22T03:07:47;97793.44;;;23.00;52.34
69187;BME280;56301;56.864;60.554;2023-07-22T03:10:10;97796.97;;;23.29;53.11
69187;BME280;56301;56.864;60.554;2023-07-22T03:12:32;97791.28;;;23.52;52.59
69187;BME280;56301;56.864;60.554;2023-07-22T03:14:55;97795.50;;;23.61;53.33
69187;BME280;56301;56.864;60.554;2023-07-22T03:17:18;97804.50;;;23.68;52.59
69187;BME280;56301;56.864;60.554;2023-07-22T03:19:40;97798.72;;;23.71;53.78
69187;BME280;56301;56.864;60.554;2023-07-22T03:22:03;97788.13;;;23.76;53.75
69187;BME280;56301;56.864;60.554;2023-07-22T03:24:25;97798.72;;;23.78;53.33
69187;BME280;56301;56.864;60.554;2023-07-22T03:26:48;97821.81;;;23.81;53.22
69187;BME280;56301;56.864;60.554;2023-07-22T03:29:11;97819.75;;;23.83;52.98
69187;BME280;56301;56.864;60.554;2023-07-22T03:31:33;97819.53;;;23.84;53.17
69187;BME280;56301;56.864;60.554;2023-07-22T03:33:55;97819.34;;;23.86;53.36
69187;BME280;56301;56.864;60.554;2023-07-22T03:36:18;97816.03;;;23.90;53.37
69187;BME280;56301;56.864;60.554;2023-07-22T03:38:40;97813.94;;;23.92;53.23
69187;BME280;56301;56.864;60.554;2023-07-22T03:41:03;97820.63;;;23.96;53.72
69187;BME280;56301;56.864;60.554;2023-07-22T03:43:25;97808.97;;;23.96;53.57
69187;BME280;56301;56.864;60.554;2023-07-22T03:45:48;97817.72;;;23.98;53.67
69187;BME280;56301;56.864;60.554;2023-07-22T03:48:10;97813.38;;;23.97;53.26
69187;BME280;56301;56.864;60.554;2023-07-22T03:50:33;97812.31;;;23.98;53.71
69187;BME280;56301;56.864;60.554;2023-07-22T03:52:55;97808.56;;;23.99;54.02
69187;BME280;56301;56.864;60.554;2023-07-22T03:55:18;97800.06;;;24.02;53.64
69187;BME280;56301;56.864;60.554;2023-07-22T03:57:40;97802.28;;;23.16;52.25
69187;BME280;56301;56.864;60.554;2023-07-22T04:00:03;97800.38;;;22.88;53.54
69187;BME280;56301;56.864;60.554;2023-07-22T04:02:34;97801.59;;;22.86;55.69
69187;BME280;56301;56.864;60.554;2023-07-22T04:04:57;97799.53;;;23.09;56.34
69187;BME280;56301;56.864;60.554;2023-07-22T04:07:19;97810.31;;;23.37;56.62
69187;BME280;56301;56.864;60.554;2023-07-22T04:09:42;97804.19;;;23.50;57.07
69187;BME280;56301;56.864;60.554;2023-07-22T04:12:05;97802.44;;;23.70;55.96
69187;BME280;56301;56.864;60.554;2023-07-22T04:14:28;97796.06;;;23.85;54.96
69187;BME280;56301;56.864;60.554;2023-07-22T04:16:50;97805.00;;;23.92;56.03
69187;BME280;56301;56.864;60.554;2023-07-22T04:19:13;97798.59;;;23.99;55.96
69187;BME280;56301;56.864;60.554;2023-07-22T04:21:37;97796.72;;;24.00;55.41
69187;BME280;56301;56.864;60.554;2023-07-22T04:23:59;97798.19;;;24.02;55.34
69187;BME280;56301;56.864;60.554;2023-07-22T04:26:22;97804.88;;;24.07;55.24
69187;BME280;56301;56.864;60.554;2023-07-22T04:28:44;97802.38;;;24.05;54.89
69187;BME280;56301;56.864;60.554;2023-07-22T04:31:08;97806.56;;;24.08;54.96
69187;BME280;56301;56.864;60.554;2023-07-22T04:33:31;97817.16;;;24.09;55.36
69187;BME280;56301;56.864;60.554;2023-07-22T04:35:55;97805.09;;;24.12;55.07
69187;BME280;56301;56.864;60.554;2023-07-22T04:38:18;97810.28;;;24.13;54.64
69187;BME280;56301;56.864;60.554;2023-07-22T04:40:44;97820.69;;;24.16;55.09
69187;BME280;56301;56.864;60.554;2023-07-22T04:43:06;97815.72;;;24.20;55.22
69187;BME280;56301;56.864;60.554;2023-07-22T04:45:29;97812.81;;;24.21;55.56
69187;BME280;56301;56.864;60.554;2023-07-22T04:47:52;97804.50;;;24.23;55.36
69187;BME280;56301;56.864;60.554;2023-07-22T04:50:14;97816.59;;;24.27;55.15
69187;BME280;56301;56.864;60.554;2023-07-22T04:52:37;97816.19;;;24.30;55.07
69187;BME280;56301;56.864;60.554;2023-07-22T04:54:59;97821.59;;;24.37;55.59
69187;BME280;56301;56.864;60.554;2023-07-22T04:57:22;97819.16;;;24.42;55.36
69187;BME280;56301;56.864;60.554;2023-07-22T04:59:44;97820.00;;;24.49;55.99
69187;BME280;56301;56.864;60.554;2023-07-22T05:02:06;97812.28;;;24.46;55.77
69187;BME280;56301;56.864;60.554;2023-07-22T05:04:29;97811.88;;;24.49;56.43
69187;BME280;56301;56.864;60.554;2023-07-22T05:06:51;97824.56;;;24.48;56.36
69187;BME280;56301;56.864;60.554;2023-07-22T05:09:14;97821.03;;;24.48;56.31
69187;BME280;56301;56.864;60.554;2023-07-22T05:11:36;97818.75;;;24.52;56.74
69187;BME280;56301;56.864;60.554;2023-07-22T05:13:58;97815.84;;;24.53;56.06
69187;BME280;56301;56.864;60.554;2023-07-22T05:16:21;97816.66;;;24.54;55.83
69187;BME280;56301;56.864;60.554;2023-07-22T05:18:43;97813.56;;;24.57;55.55
69187;BME280;56301;56.864;60.554;2023-07-22T05:21:06;97812.09;;;24.54;55.82
69187;BME280;56301;56.864;60.554;2023-07-22T05:23:28;97813.78;;;24.55;56.33
69187;BME280;56301;56.864;60.554;2023-07-22T05:25:51;97810.03;;;24.56;56.20
69187;BME280;56301;56.864;60.554;2023-07-22T05:28:14;97814.78;;;24.54;56.15
69187;BME280;56301;56.864;60.554;2023-07-22T05:30:36;97816.25;;;24.50;55.46
69187;BME280;56301;56.864;60.554;2023-07-22T05:32:59;97810.66;;;24.52;55.51
69187;BME280;56301;56.864;60.554;2023-07-22T05:35:21;97812.94;;;24.48;55.70
69187;BME280;56301;56.864;60.554;2023-07-22T05:37:44;97803.13;;;24.47;55.59
69187;BME280;56301;56.864;60.554;2023-07-22T05:40:06;97811.25;;;24.47;55.30
69187;BME280;56301;56.864;60.554;2023-07-22T05:42:29;97801.69;;;24.44;55.69
69187;BME280;56301;56.864;60.554;2023-07-22T05:44:53;97808.09;;;24.43;55.54
69187;BME280;56301;56.864;60.554;2023-07-22T05:47:15;97814.78;;;24.41;56.09
69187;BME280;56301;56.864;60.554;2023-07-22T05:49:38;97817.50;;;24.41;55.71
69187;BME280;56301;56.864;60.554;2023-07-22T05:52:00;97815.78;;;24.40;56.12
69187;BME280;56301;56.864;60.554;2023-07-22T05:54:23;97816.81;;;24.39;55.85
69187;BME280;56301;56.864;60.554;2023-07-22T05:56:45;97816.19;;;24.37;56.29
69187;BME280;56301;56.864;60.554;2023-07-22T05:59:08;97830.56;;;24.37;56.22
69187;BME280;56301;56.864;60.554;2023-07-22T06:01:30;97837.84;;;24.37;56.31
69187;BME280;56301;56.864;60.554;2023-07-22T06:03:52;97833.66;;;24.34;56.17
69187;BME280;56301;56.864;60.554;2023-07-22T06:06:15;97837.84;;;24.37;56.59
69187;BME280;56301;56.864;60.554;2023-07-22T06:08:37;97838.22;;;24.34;55.98
69187;BME280;56301;56.864;60.554;2023-07-22T06:11:00;97834.47;;;24.35;56.65
69187;BME280;56301;56.864;60.554;2023-07-22T06:13:22;97849.03;;;24.34;56.37
69187;BME280;56301;56.864;60.554;2023-07-22T06:15:45;97843.63;;;24.34;56.92
69187;BME280;56301;56.864;60.554;2023-07-22T06:18:09;97840.28;;;24.32;57.12
69187;BME280;56301;56.864;60.554;2023-07-22T06:20:31;97839.25;;;24.33;56.57
69187;BME280;56301;56.864;60.554;2023-07-22T06:22:54;97836.75;;;24.31;56.84
69187;BME280;56301;56.864;60.554;2023-07-22T06:25:16;97840.28;;;24.32;57.12
69187;BME280;56301;56.864;60.554;2023-07-22T06:27:39;97834.88;;;24.32;56.82
69187;BME280;56301;56.864;60.554;2023-07-22T06:30:01;97849.44;;;24.31;57.06
69187;BME280;56301;56.864;60.554;2023-07-22T06:32:24;97838.63;;;24.31;56.99
69187;BME280;56301;56.864;60.554;2023-07-22T06:34:46;97838.63;;;24.31;56.70
69187;BME280;56301;56.864;60.554;2023-07-22T06:37:08;97838.63;;;24.31;56.63
69187;BME280;56301;56.864;60.554;2023-07-22T06:39:31;97847.78;;;24.30;57.17
69187;BME280;56301;56.864;60.554;2023-07-22T06:41:54;97835.28;;;24.29;56.79
69187;BME280;56301;56.864;60.554;2023-07-22T06:44:16;97840.69;;;24.29;57.01
69187;BME280;56301;56.864;60.554;2023-07-22T06:46:39;97845.09;;;24.30;57.37
69187;BME280;56301;56.864;60.554;2023-07-22T06:49:01;97848.63;;;24.30;57.25
69187;BME280;56301;56.864;60.554;2023-07-22T06:51:23;97851.31;;;24.30;57.21
69187;BME280;56301;56.864;60.554;2023-07-22T06:53:46;97847.78;;;24.30;57.44
69187;BME280;56301;56.864;60.554;2023-07-22T06:56:08;97844.03;;;24.31;57.51
69187;BME280;56301;56.864;60.554;2023-07-22T06:58:31;97845.09;;;24.30;57.14
69187;BME280;56301;56.864;60.554;2023-07-22T07:00:53;97857.75;;;24.29;57.58
69187;BME280;56301;56.864;60.554;2023-07-22T07:03:16;97857.56;;;24.31;57.54
69187;BME280;56301;56.864;60.554;2023-07-22T07:05:38;97855.91;;;24.30;57.24
69187;BME280;56301;56.864;60.554;2023-07-22T07:08:01;97860.44;;;24.29;57.07
69187;BME280;56301;56.864;60.554;2023-07-22T07:10:23;97864.00;;;24.30;57.51
69187;BME280;56301;56.864;60.554;2023-07-22T07:12:46;97856.91;;;24.29;57.61
69187;BME280;56301;56.864;60.554;2023-07-22T07:15:08;97860.25;;;24.31;56.99
69187;BME280;56301;56.864;60.554;2023-07-22T07:17:31;97858.59;;;24.30;57.62
69187;BME280;56301;56.864;60.554;2023-07-22T07:19:53;97845.91;;;24.30;57.51
69187;BME280;56301;56.864;60.554;2023-07-22T07:22:16;97854.22;;;24.29;57.01
69187;BME280;56301;56.864;60.554;2023-07-22T07:24:38;97846.09;;;24.29;57.53
69187;BME280;56301;56.864;60.554;2023-07-22T07:27:00;97841.75;;;24.27;57.28
69187;BME280;56301;56.864;60.554;2023-07-22T07:29:23;97844.22;;;24.29;57.42
69187;BME280;56301;56.864;60.554;2023-07-22T07:31:45;97838.00;;;24.29;57.81
69187;BME280;56301;56.864;60.554;2023-07-22T07:34:08;97840.69;;;24.29;57.47
69187;BME280;56301;56.864;60.554;2023-07-22T07:36:31;97846.09;;;24.29;57.14
69187;BME280;56301;56.864;60.554;2023-07-22T07:38:53;97844.03;;;24.31;57.87
69187;BME280;56301;56.864;60.554;2023-07-22T07:41:16;97846.94;;;24.29;57.75
69187;BME280;56301;56.864;60.554;2023-07-22T07:43:39;97836.97;;;24.30;58.01
69187;BME280;56301;56.864;60.554;2023-07-22T07:46:14;97836.97;;;24.30;57.54
69187;BME280;56301;56.864;60.554;2023-07-22T07:48:37;97840.28;;;24.32;57.85
69187;BME280;56301;56.864;60.554;2023-07-22T07:50:59;97835.72;;;24.32;57.85
69187;BME280;56301;56.864;60.554;2023-07-22T07:53:22;97831.13;;;24.33;57.89
69187;BME280;56301;56.864;60.554;2023-07-22T07:55:44;97832.81;;;24.34;57.34
69187;BME280;56301;56.864;60.554;2023-07-22T07:58:07;97830.31;;;24.32;57.81
69187;BME280;56301;56.864;60.554;2023-07-22T08:00:29;97824.72;;;24.34;57.58
69187;BME280;56301;56.864;60.554;2023-07-22T08:02:51;97825.31;;;24.36;57.29
69187;BME280;56301;56.864;60.554;2023-07-22T08:05:14;97824.31;;;24.37;57.82
69187;BME280;56301;56.864;60.554;2023-07-22T08:07:36;97816.19;;;24.37;57.91
69187;BME280;56301;56.864;60.554;2023-07-22T08:09:59;97814.31;;;24.37;57.30
69187;BME280;56301;56.864;60.554;2023-07-22T08:12:21;97804.34;;;24.38;57.46
69187;BME280;56301;56.864;60.554;2023-07-22T08:14:44;97804.97;;;24.40;57.92
69187;BME280;56301;56.864;60.554;2023-07-22T08:17:06;97803.97;;;24.41;57.67
69187;BME280;56301;56.864;60.554;2023-07-22T08:19:28;97798.34;;;24.42;57.63
69187;BME280;56301;56.864;60.554;2023-07-22T08:21:51;97799.16;;;24.43;57.13
69187;BME280;56301;56.864;60.554;2023-07-22T08:24:13;97793.75;;;24.43;57.38
69187;BME280;56301;56.864;60.554;2023-07-22T08:26:36;97790.66;;;24.46;57.32
69187;BME280;56301;56.864;60.554;2023-07-22T08:28:58;97795.44;;;24.44;57.84
69187;BME280;56301;56.864;60.554;2023-07-22T08:31:21;97798.97;;;24.44;57.74
69187;BME280;56301;56.864;60.554;2023-07-22T08:33:43;97787.94;;;24.46;57.29
69187;BME280;56301;56.864;60.554;2023-07-22T08:36:05;97781.94;;;24.44;57.04
69187;BME280;56301;56.864;60.554;2023-07-22T08:38:28;97789.41;;;24.42;57.53
69187;BME280;56301;56.864;60.554;2023-07-22T08:40:50;97796.47;;;24.43;58.06
69187;BME280;56301;56.864;60.554;2023-07-22T08:43:13;97792.09;;;24.42;58.01
69187;BME280;56301;56.864;60.554;2023-07-22T08:45:36;97794.34;;;24.38;57.93
69187;BME280;56301;56.864;60.554;2023-07-22T08:47:59;97796.03;;;24.39;57.98
69187;BME280;56301;56.864;60.554;2023-07-22T08:50:22;97787.28;;;24.37;58.03
69187;BME280;56301;56.864;60.554;2023-07-22T08:52:47;97792.69;;;24.37;58.08
69187;BME280;56301;56.864;60.554;2023-07-22T08:55:09;97795.59;;;24.36;57.83
69187;BME280;56301;56.864;60.554;2023-07-22T08:57:32;97788.75;;;24.33;58.20
69187;BME280;56301;56.864;60.554;2023-07-22T08:59:56;97797.69;;;24.34;57.81
69187;BME280;56301;56.864;60.554;2023-07-22T09:02:19;97797.88;;;24.32;58.25
69187;BME280;56301;56.864;60.554;2023-07-22T09:04:42;97783.34;;;24.33;57.91
69187;BME280;56301;56.864;60.554;2023-07-22T09:07:04;97774.38;;;24.33;57.89
69187;BME280;56301;56.864;60.554;2023-07-22T09:09:27;97760.84;;;24.33;57.80
69187;BME280;56301;56.864;60.554;2023-07-22T09:11:50;97771.66;;;24.33;57.78
69187;BME280;56301;56.864;60.554;2023-07-22T09:14:13;97771.66;;;24.33;58.22
69187;BME280;56301;56.864;60.554;2023-07-22T09:16:36;97773.13;;;24.35;58.19
69187;BME280;56301;56.864;60.554;2023-07-22T09:18:59;97759.63;;;24.35;58.40
69187;BME280;56301;56.864;60.554;2023-07-22T09:21:22;97764.84;;;24.37;58.10
69187;BME280;56301;56.864;60.554;2023-07-22T09:23:44;97763.16;;;24.36;57.97
69187;BME280;56301;56.864;60.554;2023-07-22T09:26:14;97759.22;;;24.38;58.00
69187;BME280;56301;56.864;60.554;2023-07-22T09:28:56;97757.19;;;24.40;58.23
69187;BME280;56301;56.864;60.554;2023-07-22T09:31:22;97758.00;;;24.41;58.06
69187;BME280;56301;56.864;60.554;2023-07-22T09:33:45;97758.00;;;24.41;58.25
69187;BME280;56301;56.864;60.554;2023-07-22T09:36:09;97751.78;;;24.40;58.18
69187;BME280;56301;56.864;60.554;2023-07-22T09:38:32;97753.44;;;24.41;57.80
69187;BME280;56301;56.864;60.554;2023-07-22T09:40:54;97754.25;;;24.42;57.78
69187;BME280;56301;56.864;60.554;2023-07-22T09:43:16;97748.84;;;24.42;57.73
69187;BME280;56301;56.864;60.554;2023-07-22T09:45:39;97752.59;;;24.41;57.82
69187;BME280;56301;56.864;60.554;2023-07-22T09:48:01;97740.94;;;24.40;58.23
69187;BME280;56301;56.864;60.554;2023-07-22T09:50:24;97736.97;;;24.43;57.85
69187;BME280;56301;56.864;60.554;2023-07-22T09:52:48;97740.72;;;24.42;57.73
69187;BME280;56301;56.864;60.554;2023-07-22T09:55:11;97730.13;;;24.47;57.59
69187;BME280;56301;56.864;60.554;2023-07-22T09:57:33;97724.72;;;24.47;58.17
69187;BME280;56301;56.864;60.554;2023-07-22T09:59:57;97724.53;;;24.48;57.62
69187;BME280;56301;56.864;60.554;2023-07-22T10:02:20;97704.13;;;24.46;57.32
69187;BME280;56301;56.864;60.554;2023-07-22T10:04:44;97714.31;;;24.50;57.99
69187;BME280;56301;56.864;60.554;2023-07-22T10:07:07;97714.94;;;24.53;57.78
69187;BME280;56301;56.864;60.554;2023-07-22T10:09:30;97702.25;;;24.53;57.59
69187;BME280;56301;56.864;60.554;2023-07-22T10:11:53;97696.84;;;24.53;57.76
69187;BME280;56301;56.864;60.554;2023-07-22T10:14:16;97690.63;;;24.53;57.56
69187;BME280;56301;56.864;60.554;2023-07-22T10:16:39;97692.28;;;24.54;57.64
69187;BME280;56301;56.864;60.554;2023-07-22T10:19:02;97690.19;;;24.56;57.41
69187;BME280;56301;56.864;60.554;2023-07-22T10:21:25;97683.75;;;24.57;57.96
69187;BME280;56301;56.864;60.554;2023-07-22T10:23:47;97680.41;;;24.61;57.55
69187;BME280;56301;56.864;60.554;2023-07-22T10:26:10;97685.41;;;24.64;57.17
69187;BME280;56301;56.864;60.554;2023-07-22T10:28:33;97677.28;;;24.64;57.14
69187;BME280;56301;56.864;60.554;2023-07-22T10:30:55;97668.75;;;24.67;57.16
69187;BME280;56301;56.864;60.554;2023-07-22T10:33:18;97665.22;;;24.67;57.17
69187;BME280;56301;56.864;60.554;2023-07-22T10:35:41;97669.16;;;24.71;57.23
69187;BME280;56301;56.864;60.554;2023-07-22T10:38:08;97665.22;;;24.73;57.57
69187;BME280;56301;56.864;60.554;2023-07-22T10:40:31;97655.41;;;24.72;57.15
69187;BME280;56301;56.864;60.554;2023-07-22T10:42:57;97659.19;;;24.71;57.05
69187;BME280;56301;56.864;60.554;2023-07-22T10:45:29;97664.41;;;24.73;57.64
69187;BME280;56301;56.864;60.554;2023-07-22T10:48:07;97657.72;;;24.69;57.68
69187;BME280;56301;56.864;60.554;2023-07-22T10:56:10;97648.59;;;24.63;57.30
69187;BME280;56301;56.864;60.554;2023-07-22T10:58:35;97648.34;;;24.65;58.14
69187;BME280;56301;56.864;60.554;2023-07-22T11:06:28;97637.34;;;24.66;57.64
69187;BME280;56301;56.864;60.554;2023-07-22T11:08:51;97629.22;;;24.66;57.05
69187;BME280;56301;56.864;60.554;2023-07-22T11:11:13;97636.06;;;24.69;57.15
69187;BME280;56301;56.864;60.554;2023-07-22T11:13:39;97637.13;;;24.68;58.11
69187;BME280;56301;56.864;60.554;2023-07-22T11:16:02;97629.22;;;24.66;57.45
69187;BME280;56301;56.864;60.554;2023-07-22T11:18:39;97626.72;;;24.65;57.42
69187;BME280;56301;56.864;60.554;2023-07-22T11:21:02;97627.56;;;24.65;57.37
69187;BME280;56301;56.864;60.554;2023-07-22T11:23:28;97619.25;;;24.67;57.79
69187;BME280;56301;56.864;60.554;2023-07-22T11:25:55;97616.31;;;24.68;57.52
69187;BME280;56301;56.864;60.554;2023-07-22T11:28:17;97613.84;;;24.67;57.88
69187;BME280;56301;56.864;60.554;2023-07-22T11:30:40;97603.00;;;24.67;57.53
69187;BME280;56301;56.864;60.554;2023-07-22T11:33:02;97602.78;;;24.68;57.92
69187;BME280;56301;56.864;60.554;2023-07-22T11:35:24;97601.56;;;24.64;57.69
69187;BME280;56301;56.864;60.554;2023-07-22T11:37:49;97603.22;;;24.65;57.99
69187;BME280;56301;56.864;60.554;2023-07-22T11:40:22;97600.50;;;24.65;58.13
69187;BME280;56301;56.864;60.554;2023-07-22T11:42:44;97598.84;;;24.64;58.21
69187;BME280;56301;56.864;60.554;2023-07-22T11:45:07;97596.16;;;24.64;58.19
69187;BME280;56301;56.864;60.554;2023-07-22T11:47:29;97590.13;;;24.62;58.25
69187;BME280;56301;56.864;60.554;2023-07-22T11:49:52;97597.63;;;24.60;57.90
69187;BME280;56301;56.864;60.554;2023-07-22T11:52:15;97596.78;;;24.60;57.86
69187;BME280;56301;56.864;60.554;2023-07-22T11:54:39;97587.84;;;24.59;58.11
69187;BME280;56301;56.864;60.554;2023-07-22T11:57:14;97585.13;;;24.59;58.22
69187;BME280;56301;56.864;60.554;2023-07-22T11:59:37;97575.97;;;24.60;58.25
69187;BME280;56301;56.864;60.554;2023-07-22T12:02:00;97571.63;;;24.59;58.49
69187;BME280;56301;56.864;60.554;2023-07-22T12:04:23;97566.22;;;24.59;57.98
69187;BME280;56301;56.864;60.554;2023-07-22T12:06:45;97569.94;;;24.58;57.86
69187;BME280;56301;56.864;60.554;2023-07-22T12:09:08;97562.03;;;24.57;58.22
69187;BME280;56301;56.864;60.554;2023-07-22T12:11:32;97561.22;;;24.56;58.35
69187;BME280;56301;56.864;60.554;2023-07-22T12:16:46;97557.28;;;24.52;58.40
69187;BME280;56301;56.864;60.554;2023-07-22T12:19:09;97556.22;;;24.53;58.45
69187;BME280;56301;56.864;60.554;2023-07-22T12:21:31;97552.47;;;24.54;58.49
69187;BME280;56301;56.864;60.554;2023-07-22T12:23:54;97550.81;;;24.53;58.34
69187;BME280;56301;56.864;60.554;2023-07-22T12:26:17;97551.25;;;24.50;58.41
69187;BME280;56301;56.864;60.554;2023-07-22T12:28:39;97551.25;;;24.50;58.58
69187;BME280;56301;56.864;60.554;2023-07-22T12:31:01;97552.94;;;24.51;58.10
69187;BME280;56301;56.864;60.554;2023-07-22T12:33:25;97553.94;;;24.50;58.27
69187;BME280;56301;56.864;60.554;2023-07-22T12:35:47;97550.63;;;24.48;57.99
69187;BME280;56301;56.864;60.554;2023-07-22T12:38:10;97553.53;;;24.46;58.51
69187;BME280;56301;56.864;60.554;2023-07-22T12:40:32;97549.81;;;24.47;58.53